Terminal Aerodrome Forecast
Issued by NWS

Home | Current Version | Previous Version | Text Only | Print | Product List | Glossary On
Versions: 1 2 3 4 5 6 7 8 9 10 11 12 13 14 15 16
632
FTUS43 KICT 272325
TAFCNU
TAF
KCNU 272325Z 2800/2824 17011KT P6SM BKN030
     FM280300 17012KT P6SM BKN020
     FM280600 18013KT P6SM OVC008 WS020/20040KT
     FM281200 19015G22KT P6SM OVC012
     FM281500 19017G25KT P6SM BKN025
     FM281700 20020G29KT P6SM SCT035 BKN200=

USA.gov is the U.S. government's official web portal to all federal, state and local government web resources and services.